sensor_id;sensor_type;location;lat;lon;timestamp;P1;durP1;ratioP1;P2;durP2;ratioP2
36191;SDS011;22233;42.708;23.360;2023-05-02T00:00:38;3.80;;;3.35;;
36191;SDS011;22233;42.708;23.360;2023-05-02T00:03:03;5.68;;;3.30;;
36191;SDS011;22233;42.708;23.360;2023-05-02T00:05:30;5.13;;;3.10;;
36191;SDS011;22233;42.708;23.360;2023-05-02T00:07:55;3.40;;;3.10;;
36191;SDS011;22233;42.708;23.360;2023-05-02T00:10:21;4.22;;;3.25;;
36191;SDS011;22233;42.708;23.360;2023-05-02T00:12:47;3.83;;;3.42;;
36191;SDS011;22233;42.708;23.360;2023-05-02T00:15:12;5.30;;;4.43;;
36191;SDS011;22233;42.708;23.360;2023-05-02T00:17:41;4.95;;;3.40;;
36191;SDS011;22233;42.708;23.360;2023-05-02T00:20:08;5.03;;;3.65;;
36191;SDS011;22233;42.708;23.360;2023-05-02T00:22:35;7.57;;;4.38;;
36191;SDS011;22233;42.708;23.360;2023-05-02T00:25:01;4.30;;;3.83;;
36191;SDS011;22233;42.708;23.360;2023-05-02T00:27:26;5.38;;;4.25;;
36191;SDS011;22233;42.708;23.360;2023-05-02T00:29:54;7.38;;;4.00;;
36191;SDS011;22233;42.708;23.360;2023-05-02T00:32:19;6.22;;;3.70;;
36191;SDS011;22233;42.708;23.360;2023-05-02T00:34:45;5.60;;;4.20;;
36191;SDS011;22233;42.708;23.360;2023-05-02T00:37:10;4.00;;;3.60;;
36191;SDS011;22233;42.708;23.360;2023-05-02T00:39:37;5.07;;;3.80;;
36191;SDS011;22233;42.708;23.360;2023-05-02T00:42:02;5.20;;;3.67;;
36191;SDS011;22233;42.708;23.360;2023-05-02T00:44:28;5.00;;;3.67;;
36191;SDS011;22233;42.708;23.360;2023-05-02T00:46:54;5.60;;;3.60;;
36191;SDS011;22233;42.708;23.360;2023-05-02T00:49:20;4.43;;;3.40;;
36191;SDS011;22233;42.708;23.360;2023-05-02T00:51:46;4.45;;;3.72;;
36191;SDS011;22233;42.708;23.360;2023-05-02T00:54:11;4.60;;;3.13;;
36191;SDS011;22233;42.708;23.360;2023-05-02T00:56:37;4.45;;;3.03;;
36191;SDS011;22233;42.708;23.360;2023-05-02T00:59:03;3.83;;;3.03;;
36191;SDS011;22233;42.708;23.360;2023-05-02T01:14:57;4.53;;;3.15;;
36191;SDS011;22233;42.708;23.360;2023-05-02T01:17:26;3.97;;;3.03;;
36191;SDS011;22233;42.708;23.360;2023-05-02T01:20:01;6.53;;;3.70;;
36191;SDS011;22233;42.708;23.360;2023-05-02T01:22:29;4.28;;;3.75;;
36191;SDS011;22233;42.708;23.360;2023-05-02T01:27:55;5.05;;;3.70;;
36191;SDS011;22233;42.708;23.360;2023-05-02T01:30:29;4.57;;;3.40;;
36191;SDS011;22233;42.708;23.360;2023-05-02T01:32:58;4.85;;;3.47;;
36191;SDS011;22233;42.708;23.360;2023-05-02T01:35:25;5.72;;;3.95;;
36191;SDS011;22233;42.708;23.360;2023-05-02T01:37:52;4.28;;;3.72;;
36191;SDS011;22233;42.708;23.360;2023-05-02T01:40:20;4.68;;;3.60;;
36191;SDS011;22233;42.708;23.360;2023-05-02T01:42:49;4.20;;;3.80;;
36191;SDS011;22233;42.708;23.360;2023-05-02T01:45:16;6.38;;;4.25;;
36191;SDS011;22233;42.708;23.360;2023-05-02T01:47:45;5.28;;;4.10;;
36191;SDS011;22233;42.708;23.360;2023-05-02T01:50:11;4.30;;;3.90;;
36191;SDS011;22233;42.708;23.360;2023-05-02T01:52:41;4.53;;;3.88;;
36191;SDS011;22233;42.708;23.360;2023-05-02T01:55:08;4.88;;;3.60;;
36191;SDS011;22233;42.708;23.360;2023-05-02T01:57:38;8.70;;;4.40;;
36191;SDS011;22233;42.708;23.360;2023-05-02T02:02:31;4.40;;;3.65;;
36191;SDS011;22233;42.708;23.360;2023-05-02T02:04:59;4.25;;;3.85;;
36191;SDS011;22233;42.708;23.360;2023-05-02T02:07:28;5.05;;;4.32;;
36191;SDS011;22233;42.708;23.360;2023-05-02T02:09:54;5.07;;;3.92;;
36191;SDS011;22233;42.708;23.360;2023-05-02T02:12:24;4.88;;;4.38;;
36191;SDS011;22233;42.708;23.360;2023-05-02T02:14:55;6.82;;;5.07;;
36191;SDS011;22233;42.708;23.360;2023-05-02T02:17:25;4.80;;;3.85;;
36191;SDS011;22233;42.708;23.360;2023-05-02T02:19:54;5.07;;;4.18;;
36191;SDS011;22233;42.708;23.360;2023-05-02T02:22:25;4.70;;;4.20;;
36191;SDS011;22233;42.708;23.360;2023-05-02T02:24:52;5.00;;;3.95;;
36191;SDS011;22233;42.708;23.360;2023-05-02T02:27:18;5.35;;;4.03;;
36191;SDS011;22233;42.708;23.360;2023-05-02T02:29:44;4.47;;;4.07;;
36191;SDS011;22233;42.708;23.360;2023-05-02T02:32:10;5.25;;;4.05;;
36191;SDS011;22233;42.708;23.360;2023-05-02T02:34:35;8.00;;;4.57;;
36191;SDS011;22233;42.708;23.360;2023-05-02T02:37:22;4.72;;;4.25;;
36191;SDS011;22233;42.708;23.360;2023-05-02T02:46:19;5.05;;;3.70;;
36191;SDS011;22233;42.708;23.360;2023-05-02T02:48:35;4.97;;;3.47;;
36191;SDS011;22233;42.708;23.360;2023-05-02T02:51:13;4.35;;;3.95;;
36191;SDS011;22233;42.708;23.360;2023-05-02T02:54:04;5.57;;;4.32;;
36191;SDS011;22233;42.708;23.360;2023-05-02T02:56:38;5.75;;;4.28;;
36191;SDS011;22233;42.708;23.360;2023-05-02T02:59:19;5.00;;;4.45;;
36191;SDS011;22233;42.708;23.360;2023-05-02T03:02:12;7.57;;;5.18;;
36191;SDS011;22233;42.708;23.360;2023-05-02T03:04:37;4.38;;;3.83;;
36191;SDS011;22233;42.708;23.360;2023-05-02T03:07:06;5.38;;;4.38;;
36191;SDS011;22233;42.708;23.360;2023-05-02T03:09:44;5.45;;;4.70;;
36191;SDS011;22233;42.708;23.360;2023-05-02T03:12:11;6.07;;;4.50;;
36191;SDS011;22233;42.708;23.360;2023-05-02T03:14:37;5.28;;;4.65;;
36191;SDS011;22233;42.708;23.360;2023-05-02T03:17:03;4.53;;;4.05;;
36191;SDS011;22233;42.708;23.360;2023-05-02T03:19:29;6.43;;;4.05;;
36191;SDS011;22233;42.708;23.360;2023-05-02T03:21:54;5.10;;;4.28;;
36191;SDS011;22233;42.708;23.360;2023-05-02T03:24:20;6.00;;;4.10;;
36191;SDS011;22233;42.708;23.360;2023-05-02T03:26:46;5.03;;;3.95;;
36191;SDS011;22233;42.708;23.360;2023-05-02T03:29:14;4.03;;;3.63;;
36191;SDS011;22233;42.708;23.360;2023-05-02T03:31:40;4.50;;;4.00;;
36191;SDS011;22233;42.708;23.360;2023-05-02T03:34:05;5.32;;;4.05;;
36191;SDS011;22233;42.708;23.360;2023-05-02T03:36:31;4.80;;;4.00;;
36191;SDS011;22233;42.708;23.360;2023-05-02T03:38:56;4.63;;;4.20;;
36191;SDS011;22233;42.708;23.360;2023-05-02T03:41:22;5.32;;;4.30;;
36191;SDS011;22233;42.708;23.360;2023-05-02T03:43:49;4.53;;;4.07;;
36191;SDS011;22233;42.708;23.360;2023-05-02T03:46:15;7.05;;;4.57;;
36191;SDS011;22233;42.708;23.360;2023-05-02T03:48:40;4.97;;;4.43;;
36191;SDS011;22233;42.708;23.360;2023-05-02T03:51:05;6.13;;;4.28;;
36191;SDS011;22233;42.708;23.360;2023-05-02T03:53:34;4.82;;;4.13;;
36191;SDS011;22233;42.708;23.360;2023-05-02T03:56:00;6.18;;;4.75;;
36191;SDS011;22233;42.708;23.360;2023-05-02T03:58:26;6.95;;;4.93;;
36191;SDS011;22233;42.708;23.360;2023-05-02T04:00:51;8.23;;;4.53;;
36191;SDS011;22233;42.708;23.360;2023-05-02T04:03:17;7.63;;;4.50;;
36191;SDS011;22233;42.708;23.360;2023-05-02T04:05:44;5.68;;;4.05;;
36191;SDS011;22233;42.708;23.360;2023-05-02T04:08:09;5.80;;;4.28;;
36191;SDS011;22233;42.708;23.360;2023-05-02T04:10:35;7.32;;;4.43;;
36191;SDS011;22233;42.708;23.360;2023-05-02T04:13:01;6.75;;;4.20;;
36191;SDS011;22233;42.708;23.360;2023-05-02T04:15:27;6.67;;;4.53;;
36191;SDS011;22233;42.708;23.360;2023-05-02T04:17:53;5.00;;;3.83;;
36191;SDS011;22233;42.708;23.360;2023-05-02T04:20:19;6.55;;;4.40;;
36191;SDS011;22233;42.708;23.360;2023-05-02T04:22:44;5.85;;;4.05;;
36191;SDS011;22233;42.708;23.360;2023-05-02T04:25:11;4.68;;;3.92;;
36191;SDS011;22233;42.708;23.360;2023-05-02T04:27:37;4.53;;;4.13;;
36191;SDS011;22233;42.708;23.360;2023-05-02T04:30:03;4.93;;;3.65;;
36191;SDS011;22233;42.708;23.360;2023-05-02T04:32:28;4.07;;;3.67;;
36191;SDS011;22233;42.708;23.360;2023-05-02T04:34:54;6.97;;;3.67;;
36191;SDS011;22233;42.708;23.360;2023-05-02T04:37:19;5.22;;;3.70;;
36191;SDS011;22233;42.708;23.360;2023-05-02T04:39:45;4.18;;;3.47;;
36191;SDS011;22233;42.708;23.360;2023-05-02T04:42:10;4.63;;;3.45;;
36191;SDS011;22233;42.708;23.360;2023-05-02T04:44:36;4.30;;;3.38;;
36191;SDS011;22233;42.708;23.360;2023-05-02T04:47:01;6.80;;;4.10;;
36191;SDS011;22233;42.708;23.360;2023-05-02T04:49:28;5.70;;;3.53;;
36191;SDS011;22233;42.708;23.360;2023-05-02T04:51:53;4.43;;;3.47;;
36191;SDS011;22233;42.708;23.360;2023-05-02T04:54:19;4.40;;;3.83;;
36191;SDS011;22233;42.708;23.360;2023-05-02T04:56:44;4.50;;;3.85;;
36191;SDS011;22233;42.708;23.360;2023-05-02T04:59:10;4.80;;;3.80;;
36191;SDS011;22233;42.708;23.360;2023-05-02T05:01:36;8.43;;;3.85;;
36191;SDS011;22233;42.708;23.360;2023-05-02T05:04:01;5.05;;;3.45;;
36191;SDS011;22233;42.708;23.360;2023-05-02T05:06:27;5.93;;;3.58;;
36191;SDS011;22233;42.708;23.360;2023-05-02T05:08:52;4.47;;;2.83;;
36191;SDS011;22233;42.708;23.360;2023-05-02T05:11:21;4.30;;;3.50;;
36191;SDS011;22233;42.708;23.360;2023-05-02T05:13:47;3.17;;;2.90;;
36191;SDS011;22233;42.708;23.360;2023-05-02T05:16:12;5.03;;;2.80;;
36191;SDS011;22233;42.708;23.360;2023-05-02T05:18:38;4.80;;;3.10;;
36191;SDS011;22233;42.708;23.360;2023-05-02T05:21:06;3.25;;;2.55;;
36191;SDS011;22233;42.708;23.360;2023-05-02T05:23:33;4.13;;;2.65;;
36191;SDS011;22233;42.708;23.360;2023-05-02T05:26:12;4.50;;;3.25;;
36191;SDS011;22233;42.708;23.360;2023-05-02T05:28:39;3.00;;;2.50;;
36191;SDS011;22233;42.708;23.360;2023-05-02T05:31:08;4.50;;;3.15;;
36191;SDS011;22233;42.708;23.360;2023-05-02T05:33:35;4.78;;;3.15;;
36191;SDS011;22233;42.708;23.360;2023-05-02T05:36:08;6.13;;;3.30;;
36191;SDS011;22233;42.708;23.360;2023-05-02T05:38:35;7.68;;;3.30;;
36191;SDS011;22233;42.708;23.360;2023-05-02T05:41:01;6.97;;;2.95;;
36191;SDS011;22233;42.708;23.360;2023-05-02T05:43:27;3.97;;;2.80;;
36191;SDS011;22233;42.708;23.360;2023-05-02T05:45:53;5.82;;;2.90;;
36191;SDS011;22233;42.708;23.360;2023-05-02T05:48:19;4.95;;;3.17;;
36191;SDS011;22233;42.708;23.360;2023-05-02T05:50:45;4.43;;;2.83;;
36191;SDS011;22233;42.708;23.360;2023-05-02T05:53:11;3.55;;;2.55;;
36191;SDS011;22233;42.708;23.360;2023-05-02T05:55:37;5.55;;;2.75;;
36191;SDS011;22233;42.708;23.360;2023-05-02T05:58:03;5.75;;;3.92;;
36191;SDS011;22233;42.708;23.360;2023-05-02T06:00:29;3.58;;;2.92;;
36191;SDS011;22233;42.708;23.360;2023-05-02T06:02:54;4.00;;;2.97;;
36191;SDS011;22233;42.708;23.360;2023-05-02T06:05:20;5.63;;;2.67;;
36191;SDS011;22233;42.708;23.360;2023-05-02T06:07:45;3.45;;;2.92;;
36191;SDS011;22233;42.708;23.360;2023-05-02T06:10:11;4.50;;;2.53;;
36191;SDS011;22233;42.708;23.360;2023-05-02T06:12:36;4.82;;;2.50;;
36191;SDS011;22233;42.708;23.360;2023-05-02T06:15:01;2.97;;;2.38;;
36191;SDS011;22233;42.708;23.360;2023-05-02T06:17:27;3.92;;;2.50;;
36191;SDS011;22233;42.708;23.360;2023-05-02T06:19:52;3.17;;;2.38;;
36191;SDS011;22233;42.708;23.360;2023-05-02T06:22:18;5.60;;;3.05;;
36191;SDS011;22233;42.708;23.360;2023-05-02T06:24:43;5.35;;;2.40;;
36191;SDS011;22233;42.708;23.360;2023-05-02T06:27:08;2.85;;;2.10;;
36191;SDS011;22233;42.708;23.360;2023-05-02T06:29:34;3.95;;;2.45;;
36191;SDS011;22233;42.708;23.360;2023-05-02T06:31:59;4.40;;;2.17;;
36191;SDS011;22233;42.708;23.360;2023-05-02T06:34:25;3.42;;;2.17;;
36191;SDS011;22233;42.708;23.360;2023-05-02T06:36:53;3.03;;;2.08;;
36191;SDS011;22233;42.708;23.360;2023-05-02T06:39:22;3.60;;;2.00;;
36191;SDS011;22233;42.708;23.360;2023-05-02T06:41:48;3.22;;;2.00;;
36191;SDS011;22233;42.708;23.360;2023-05-02T06:44:23;2.55;;;2.17;;
36191;SDS011;22233;42.708;23.360;2023-05-02T06:46:48;2.72;;;2.10;;
36191;SDS011;22233;42.708;23.360;2023-05-02T06:49:14;5.45;;;2.10;;
36191;SDS011;22233;42.708;23.360;2023-05-02T06:51:40;4.10;;;1.95;;
36191;SDS011;22233;42.708;23.360;2023-05-02T06:54:05;2.95;;;1.80;;
36191;SDS011;22233;42.708;23.360;2023-05-02T06:56:31;7.00;;;1.95;;
36191;SDS011;22233;42.708;23.360;2023-05-02T06:58:56;4.68;;;2.10;;
36191;SDS011;22233;42.708;23.360;2023-05-02T07:01:22;2.42;;;2.05;;
36191;SDS011;22233;42.708;23.360;2023-05-02T07:03:47;2.60;;;2.15;;
36191;SDS011;22233;42.708;23.360;2023-05-02T07:06:13;3.50;;;1.55;;
36191;SDS011;22233;42.708;23.360;2023-05-02T07:08:38;5.47;;;1.73;;
36191;SDS011;22233;42.708;23.360;2023-05-02T07:11:12;3.03;;;1.83;;
36191;SDS011;22233;42.708;23.360;2023-05-02T07:13:38;4.38;;;1.75;;
36191;SDS011;22233;42.708;23.360;2023-05-02T07:16:03;3.17;;;1.80;;
36191;SDS011;22233;42.708;23.360;2023-05-02T07:18:29;4.82;;;1.80;;
36191;SDS011;22233;42.708;23.360;2023-05-02T07:20:54;2.63;;;1.70;;
36191;SDS011;22233;42.708;23.360;2023-05-02T07:23:20;5.22;;;2.13;;
36191;SDS011;22233;42.708;23.360;2023-05-02T07:25:46;4.70;;;2.20;;
36191;SDS011;22233;42.708;23.360;2023-05-02T07:28:12;3.92;;;1.80;;
36191;SDS011;22233;42.708;23.360;2023-05-02T07:30:37;3.47;;;1.63;;
36191;SDS011;22233;42.708;23.360;2023-05-02T07:33:02;2.45;;;1.67;;
36191;SDS011;22233;42.708;23.360;2023-05-02T07:35:28;5.63;;;1.77;;
36191;SDS011;22233;42.708;23.360;2023-05-02T07:37:53;2.72;;;1.92;;
36191;SDS011;22233;42.708;23.360;2023-05-02T07:40:19;1.95;;;1.50;;
36191;SDS011;22233;42.708;23.360;2023-05-02T07:42:45;5.10;;;2.03;;
36191;SDS011;22233;42.708;23.360;2023-05-02T07:45:10;2.60;;;1.98;;
36191;SDS011;22233;42.708;23.360;2023-05-02T07:47:36;3.53;;;1.73;;
36191;SDS011;22233;42.708;23.360;2023-05-02T07:50:02;3.40;;;1.80;;
36191;SDS011;22233;42.708;23.360;2023-05-02T07:52:30;3.35;;;1.70;;
36191;SDS011;22233;42.708;23.360;2023-05-02T07:54:56;1.75;;;1.60;;
36191;SDS011;22233;42.708;23.360;2023-05-02T07:57:21;1.70;;;1.50;;
36191;SDS011;22233;42.708;23.360;2023-05-02T07:59:48;2.65;;;2.05;;
36191;SDS011;22233;42.708;23.360;2023-05-02T08:02:13;2.75;;;1.40;;
36191;SDS011;22233;42.708;23.360;2023-05-02T08:04:41;4.50;;;1.92;;
36191;SDS011;22233;42.708;23.360;2023-05-02T08:07:06;2.25;;;1.50;;
36191;SDS011;22233;42.708;23.360;2023-05-02T08:09:32;3.00;;;2.00;;
36191;SDS011;22233;42.708;23.360;2023-05-02T08:11:57;3.00;;;1.90;;
36191;SDS011;22233;42.708;23.360;2023-05-02T08:14:23;4.30;;;1.58;;
36191;SDS011;22233;42.708;23.360;2023-05-02T08:16:48;3.40;;;1.60;;
36191;SDS011;22233;42.708;23.360;2023-05-02T08:19:14;2.03;;;1.73;;
36191;SDS011;22233;42.708;23.360;2023-05-02T08:21:39;2.83;;;1.95;;
36191;SDS011;22233;42.708;23.360;2023-05-02T08:24:05;3.80;;;1.63;;
36191;SDS011;22233;42.708;23.360;2023-05-02T08:26:30;2.40;;;1.50;;
36191;SDS011;22233;42.708;23.360;2023-05-02T08:28:56;3.60;;;1.80;;
36191;SDS011;22233;42.708;23.360;2023-05-02T08:31:21;2.42;;;1.45;;
36191;SDS011;22233;42.708;23.360;2023-05-02T08:33:47;2.28;;;1.38;;
36191;SDS011;22233;42.708;23.360;2023-05-02T08:36:16;2.67;;;1.50;;
36191;SDS011;22233;42.708;23.360;2023-05-02T08:38:42;2.13;;;1.35;;
36191;SDS011;22233;42.708;23.360;2023-05-02T08:41:18;2.97;;;1.45;;
36191;SDS011;22233;42.708;23.360;2023-05-02T08:43:44;4.45;;;1.60;;
36191;SDS011;22233;42.708;23.360;2023-05-02T08:46:11;2.00;;;1.75;;
36191;SDS011;22233;42.708;23.360;2023-05-02T08:48:41;1.85;;;1.50;;
36191;SDS011;22233;42.708;23.360;2023-05-02T08:51:12;3.88;;;1.38;;
36191;SDS011;22233;42.708;23.360;2023-05-02T08:53:38;2.15;;;1.63;;
36191;SDS011;22233;42.708;23.360;2023-05-02T08:56:05;1.42;;;1.30;;
36191;SDS011;22233;42.708;23.360;2023-05-02T08:58:32;5.67;;;1.60;;
36191;SDS011;22233;42.708;23.360;2023-05-02T09:00:59;2.17;;;1.50;;
36191;SDS011;22233;42.708;23.360;2023-05-02T09:08:31;1.77;;;1.45;;
36191;SDS011;22233;42.708;23.360;2023-05-02T09:10:57;5.85;;;1.52;;
36191;SDS011;22233;42.708;23.360;2023-05-02T09:13:33;4.53;;;1.70;;
36191;SDS011;22233;42.708;23.360;2023-05-02T09:16:07;1.77;;;1.30;;
36191;SDS011;22233;42.708;23.360;2023-05-02T09:18:40;2.67;;;1.17;;
36191;SDS011;22233;42.708;23.360;2023-05-02T09:21:14;2.55;;;1.63;;
36191;SDS011;22233;42.708;23.360;2023-05-02T09:23:53;2.47;;;1.27;;
36191;SDS011;22233;42.708;23.360;2023-05-02T09:26:23;2.70;;;1.30;;
36191;SDS011;22233;42.708;23.360;2023-05-02T09:28:55;3.83;;;1.40;;
36191;SDS011;22233;42.708;23.360;2023-05-02T09:31:21;2.47;;;1.40;;
36191;SDS011;22233;42.708;23.360;2023-05-02T09:33:51;6.32;;;1.75;;
36191;SDS011;22233;42.708;23.360;2023-05-02T09:36:18;2.95;;;1.50;;
36191;SDS011;22233;42.708;23.360;2023-05-02T09:38:45;1.65;;;1.50;;
36191;SDS011;22233;42.708;23.360;2023-05-02T09:41:12;2.92;;;1.48;;
36191;SDS011;22233;42.708;23.360;2023-05-02T09:43:38;2.22;;;1.40;;
36191;SDS011;22233;42.708;23.360;2023-05-02T09:46:05;1.60;;;1.30;;
36191;SDS011;22233;42.708;23.360;2023-05-02T09:50:58;2.60;;;1.50;;
36191;SDS011;22233;42.708;23.360;2023-05-02T09:53:24;2.60;;;2.10;;
36191;SDS011;22233;42.708;23.360;2023-05-02T09:58:28;2.78;;;1.67;;
36191;SDS011;22233;42.708;23.360;2023-05-02T10:00:55;2.78;;;1.50;;
36191;SDS011;22233;42.708;23.360;2023-05-02T10:03:22;1.97;;;1.30;;
36191;SDS011;22233;42.708;23.360;2023-05-02T10:08:15;3.83;;;1.60;;
36191;SDS011;22233;42.708;23.360;2023-05-02T10:10:44;2.35;;;1.50;;
36191;SDS011;22233;42.708;23.360;2023-05-02T10:13:14;3.63;;;1.70;;
36191;SDS011;22233;42.708;23.360;2023-05-02T10:15:42;1.50;;;1.40;;
36191;SDS011;22233;42.708;23.360;2023-05-02T10:18:12;1.95;;;1.35;;
36191;SDS011;22233;42.708;23.360;2023-05-02T10:20:43;3.72;;;1.50;;
36191;SDS011;22233;42.708;23.360;2023-05-02T10:23:18;2.70;;;1.70;;
36191;SDS011;22233;42.708;23.360;2023-05-02T10:25:45;1.52;;;1.27;;
36191;SDS011;22233;42.708;23.360;2023-05-02T10:28:10;1.35;;;1.17;;
36191;SDS011;22233;42.708;23.360;2023-05-02T10:30:38;2.22;;;1.38;;
36191;SDS011;22233;42.708;23.360;2023-05-02T10:33:05;2.72;;;2.25;;
36191;SDS011;22233;42.708;23.360;2023-05-02T10:35:30;1.30;;;1.20;;
36191;SDS011;22233;42.708;23.360;2023-05-02T10:37:56;2.60;;;1.25;;
36191;SDS011;22233;42.708;23.360;2023-05-02T10:40:24;1.83;;;1.13;;
36191;SDS011;22233;42.708;23.360;2023-05-02T10:42:50;2.05;;;1.45;;
36191;SDS011;22233;42.708;23.360;2023-05-02T10:45:34;2.78;;;1.58;;
36191;SDS011;22233;42.708;23.360;2023-05-02T10:53:24;1.50;;;1.08;;
36191;SDS011;22233;42.708;23.360;2023-05-02T10:56:10;1.67;;;1.42;;
36191;SDS011;22233;42.708;23.360;2023-05-02T10:58:38;1.73;;;1.00;;
36191;SDS011;22233;42.708;23.360;2023-05-02T11:03:58;3.20;;;1.45;;
36191;SDS011;22233;42.708;23.360;2023-05-02T11:06:25;3.47;;;1.33;;
36191;SDS011;22233;42.708;23.360;2023-05-02T11:08:52;3.92;;;1.20;;
36191;SDS011;22233;42.708;23.360;2023-05-02T11:11:37;2.05;;;1.10;;
36191;SDS011;22233;42.708;23.360;2023-05-02T11:14:06;1.77;;;1.20;;
36191;SDS011;22233;42.708;23.360;2023-05-02T11:19:28;1.48;;;1.38;;
36191;SDS011;22233;42.708;23.360;2023-05-02T11:24:52;1.67;;;1.38;;
36191;SDS011;22233;42.708;23.360;2023-05-02T11:30:05;1.83;;;1.20;;
36191;SDS011;22233;42.708;23.360;2023-05-02T11:35:17;2.70;;;1.50;;
36191;SDS011;22233;42.708;23.360;2023-05-02T11:37:57;6.82;;;1.83;;
36191;SDS011;22233;42.708;23.360;2023-05-02T11:40:24;1.75;;;1.52;;
36191;SDS011;22233;42.708;23.360;2023-05-02T11:42:51;2.00;;;1.20;;
36191;SDS011;22233;42.708;23.360;2023-05-02T11:45:17;2.38;;;1.67;;
36191;SDS011;22233;42.708;23.360;2023-05-02T11:47:44;2.30;;;1.30;;
36191;SDS011;22233;42.708;23.360;2023-05-02T11:50:15;1.65;;;1.10;;
36191;SDS011;22233;42.708;23.360;2023-05-02T11:52:43;2.13;;;1.58;;
36191;SDS011;22233;42.708;23.360;2023-05-02T11:55:09;2.28;;;1.05;;
36191;SDS011;22233;42.708;23.360;2023-05-02T11:57:37;2.97;;;1.55;;
36191;SDS011;22233;42.708;23.360;2023-05-02T12:00:03;1.55;;;1.20;;
36191;SDS011;22233;42.708;23.360;2023-05-02T12:02:36;2.95;;;1.52;;
36191;SDS011;22233;42.708;23.360;2023-05-02T12:05:06;2.42;;;1.10;;
36191;SDS011;22233;42.708;23.360;2023-05-02T12:07:36;2.10;;;1.52;;
36191;SDS011;22233;42.708;23.360;2023-05-02T12:10:06;2.15;;;1.55;;
36191;SDS011;22233;42.708;23.360;2023-05-02T12:12:33;2.25;;;1.38;;
36191;SDS011;22233;42.708;23.360;2023-05-02T12:15:08;1.95;;;1.10;;
36191;SDS011;22233;42.708;23.360;2023-05-02T12:17:42;4.50;;;1.60;;
36191;SDS011;22233;42.708;23.360;2023-05-02T12:20:13;3.40;;;1.30;;
36191;SDS011;22233;42.708;23.360;2023-05-02T12:22:39;3.83;;;1.55;;
36191;SDS011;22233;42.708;23.360;2023-05-02T12:25:05;2.10;;;1.30;;
36191;SDS011;22233;42.708;23.360;2023-05-02T12:27:32;1.48;;;1.10;;
36191;SDS011;22233;42.708;23.360;2023-05-02T12:29:58;2.70;;;1.30;;
36191;SDS011;22233;42.708;23.360;2023-05-02T12:32:32;2.33;;;1.27;;
36191;SDS011;22233;42.708;23.360;2023-05-02T12:34:58;1.90;;;1.00;;
36191;SDS011;22233;42.708;23.360;2023-05-02T12:37:26;1.60;;;1.08;;
36191;SDS011;22233;42.708;23.360;2023-05-02T12:39:52;2.67;;;1.20;;
36191;SDS011;22233;42.708;23.360;2023-05-02T12:42:19;1.65;;;1.33;;
36191;SDS011;22233;42.708;23.360;2023-05-02T12:44:47;1.40;;;1.20;;
36191;SDS011;22233;42.708;23.360;2023-05-02T12:47:16;1.48;;;1.00;;
36191;SDS011;22233;42.708;23.360;2023-05-02T12:52:20;1.42;;;1.08;;
36191;SDS011;22233;42.708;23.360;2023-05-02T12:55:15;2.75;;;1.52;;
36191;SDS011;22233;42.708;23.360;2023-05-02T12:58:01;2.50;;;1.30;;
36191;SDS011;22233;42.708;23.360;2023-05-02T13:00:28;4.20;;;1.10;;
36191;SDS011;22233;42.708;23.360;2023-05-02T13:02:55;1.75;;;1.15;;
36191;SDS011;22233;42.708;23.360;2023-05-02T13:05:20;2.70;;;1.30;;
36191;SDS011;22233;42.708;23.360;2023-05-02T13:07:46;2.53;;;1.05;;
36191;SDS011;22233;42.708;23.360;2023-05-02T13:10:11;1.67;;;1.02;;
36191;SDS011;22233;42.708;23.360;2023-05-02T13:12:37;1.70;;;1.10;;
36191;SDS011;22233;42.708;23.360;2023-05-02T13:15:03;1.80;;;1.10;;
36191;SDS011;22233;42.708;23.360;2023-05-02T13:17:30;2.10;;;1.20;;
36191;SDS011;22233;42.708;23.360;2023-05-02T13:19:56;2.08;;;1.40;;
36191;SDS011;22233;42.708;23.360;2023-05-02T13:22:22;2.35;;;1.20;;
36191;SDS011;22233;42.708;23.360;2023-05-02T13:24:47;1.38;;;1.27;;
36191;SDS011;22233;42.708;23.360;2023-05-02T13:27:13;4.18;;;1.67;;
36191;SDS011;22233;42.708;23.360;2023-05-02T13:29:39;3.85;;;1.20;;
36191;SDS011;22233;42.708;23.360;2023-05-02T13:32:04;1.73;;;1.13;;
36191;SDS011;22233;42.708;23.360;2023-05-02T13:34:30;1.58;;;0.90;;
36191;SDS011;22233;42.708;23.360;2023-05-02T13:36:55;4.03;;;1.25;;
36191;SDS011;22233;42.708;23.360;2023-05-02T13:39:21;1.48;;;1.30;;
36191;SDS011;22233;42.708;23.360;2023-05-02T13:41:46;2.88;;;1.23;;
36191;SDS011;22233;42.708;23.360;2023-05-02T13:44:12;1.80;;;1.00;;
36191;SDS011;22233;42.708;23.360;2023-05-02T13:46:37;2.75;;;0.93;;
36191;SDS011;22233;42.708;23.360;2023-05-02T13:49:03;2.08;;;1.00;;
36191;SDS011;22233;42.708;23.360;2023-05-02T13:51:29;4.00;;;1.13;;
36191;SDS011;22233;42.708;23.360;2023-05-02T13:53:58;4.40;;;1.30;;
36191;SDS011;22233;42.708;23.360;2023-05-02T13:56:24;0.93;;;0.80;;
36191;SDS011;22233;42.708;23.360;2023-05-02T13:58:49;1.75;;;1.15;;
36191;SDS011;22233;42.708;23.360;2023-05-02T14:01:15;1.20;;;1.00;;
36191;SDS011;22233;42.708;23.360;2023-05-02T14:03:40;1.83;;;1.35;;
36191;SDS011;22233;42.708;23.360;2023-05-02T14:06:06;3.10;;;0.93;;
36191;SDS011;22233;42.708;23.360;2023-05-02T14:08:31;4.75;;;1.40;;
36191;SDS011;22233;42.708;23.360;2023-05-02T14:10:57;3.47;;;1.10;;
36191;SDS011;22233;42.708;23.360;2023-05-02T14:13:22;1.45;;;0.90;;
36191;SDS011;22233;42.708;23.360;2023-05-02T14:15:48;1.38;;;0.95;;
36191;SDS011;22233;42.708;23.360;2023-05-02T14:18:14;2.88;;;1.02;;
36191;SDS011;22233;42.708;23.360;2023-05-02T14:20:40;3.63;;;1.23;;
36191;SDS011;22233;42.708;23.360;2023-05-02T14:23:06;2.22;;;1.13;;
36191;SDS011;22233;42.708;23.360;2023-05-02T14:25:32;1.65;;;1.20;;
36191;SDS011;22233;42.708;23.360;2023-05-02T14:27:57;6.18;;;1.40;;
36191;SDS011;22233;42.708;23.360;2023-05-02T14:30:23;1.88;;;1.00;;
36191;SDS011;22233;42.708;23.360;2023-05-02T14:32:48;1.65;;;1.10;;
36191;SDS011;22233;42.708;23.360;2023-05-02T14:35:14;3.53;;;1.20;;
36191;SDS011;22233;42.708;23.360;2023-05-02T14:37:39;2.63;;;1.05;;
36191;SDS011;22233;42.708;23.360;2023-05-02T14:40:06;2.03;;;1.20;;
36191;SDS011;22233;42.708;23.360;2023-05-02T14:42:32;3.23;;;1.23;;
36191;SDS011;22233;42.708;23.360;2023-05-02T14:44:57;1.95;;;1.33;;
36191;SDS011;22233;42.708;23.360;2023-05-02T14:47:27;1.80;;;1.20;;
36191;SDS011;22233;42.708;23.360;2023-05-02T14:49:54;1.50;;;1.20;;
36191;SDS011;22233;42.708;23.360;2023-05-02T14:52:20;3.10;;;1.10;;
36191;SDS011;22233;42.708;23.360;2023-05-02T14:54:45;3.75;;;1.00;;
36191;SDS011;22233;42.708;23.360;2023-05-02T14:57:11;2.17;;;1.00;;
36191;SDS011;22233;42.708;23.360;2023-05-02T14:59:36;2.67;;;1.20;;
36191;SDS011;22233;42.708;23.360;2023-05-02T15:02:02;1.33;;;0.80;;
36191;SDS011;22233;42.708;23.360;2023-05-02T15:04:28;3.47;;;1.27;;
36191;SDS011;22233;42.708;23.360;2023-05-02T15:06:54;1.92;;;0.93;;
36191;SDS011;22233;42.708;23.360;2023-05-02T15:09:20;2.60;;;1.30;;
36191;SDS011;22233;42.708;23.360;2023-05-02T15:11:47;3.40;;;1.20;;
36191;SDS011;22233;42.708;23.360;2023-05-02T15:14:12;3.05;;;1.20;;
36191;SDS011;22233;42.708;23.360;2023-05-02T15:16:38;3.05;;;1.40;;
36191;SDS011;22233;42.708;23.360;2023-05-02T15:19:03;4.10;;;1.60;;
36191;SDS011;22233;42.708;23.360;2023-05-02T15:21:29;2.47;;;1.13;;
36191;SDS011;22233;42.708;23.360;2023-05-02T15:23:55;2.38;;;1.15;;
36191;SDS011;22233;42.708;23.360;2023-05-02T15:26:20;1.75;;;1.10;;
36191;SDS011;22233;42.708;23.360;2023-05-02T15:28:47;1.55;;;1.10;;
36191;SDS011;22233;42.708;23.360;2023-05-02T15:31:12;2.45;;;1.50;;
36191;SDS011;22233;42.708;23.360;2023-05-02T15:33:38;4.45;;;1.30;;